Time;durP1;ratioP1;P1;durP2;ratioP2;P2;SDS_P1;SDS_P2;PMS_P1;PMS_P2;Temp;Humidity;BMP_temperature;BMP_pressure;BME280_temperature;BME280_humidity;BME280_pressure;Samples;Min_cycle;Max_cycle;Signal;HPM_P1;HPM_P2
2021/04/01 00:01:59;;;;;;;2.03;1.55;;;23.10;27.50;;;;;;4989782;28;20203;-56
2021/04/01 00:04:25;;;;;;;2.03;1.40;;;23.10;27.50;;;;;;4990092;28;20330;-51
2021/04/01 00:06:51;;;;;;;1.70;1.60;;;23.10;27.50;;;;;;4991763;28;21874;-52
2021/04/01 00:09:17;;;;;;;2.27;1.67;;;23.10;27.70;;;;;;4994187;28;20242;-48
2021/04/01 00:11:43;;;;;;;1.67;1.53;;;23.10;27.60;;;;;;4993522;28;20261;-47
2021/04/01 00:14:09;;;;;;;2.70;1.42;;;23.10;27.60;;;;;;4995038;28;20203;-47
2021/04/01 00:16:35;;;;;;;1.83;1.40;;;23.10;27.50;;;;;;4993180;28;20258;-46
2021/04/01 00:19:01;;;;;;;1.60;1.23;;;23.10;27.60;;;;;;4994764;28;20562;-49
2021/04/01 00:21:27;;;;;;;1.57;1.47;;;23.10;27.60;;;;;;4993341;28;20211;-48
2021/04/01 00:23:53;;;;;;;2.57;1.50;;;23.10;27.60;;;;;;4992064;28;20235;-51
2021/04/01 00:26:18;;;;;;;2.00;1.57;;;23.10;27.60;;;;;;4994465;28;20257;-54
2021/04/01 00:28:44;;;;;;;1.43;1.20;;;23.10;27.60;;;;;;4992965;28;20206;-45
2021/04/01 00:31:10;;;;;;;1.52;1.42;;;23.10;27.60;;;;;;4994182;28;20707;-48
2021/04/01 00:33:36;;;;;;;1.70;1.30;;;23.10;27.60;;;;;;4992463;28;20200;-54
2021/04/01 00:36:02;;;;;;;1.63;1.40;;;23.10;27.60;;;;;;4993293;28;20207;-50
2021/04/01 00:38:28;;;;;;;1.50;1.40;;;23.10;27.60;;;;;;4990123;28;20250;-43
2021/04/01 00:40:54;;;;;;;1.43;1.33;;;23.10;27.60;;;;;;4993470;28;20227;-42
2021/04/01 00:43:20;;;;;;;1.53;1.43;;;23.10;27.60;;;;;;4992771;28;20559;-52
2021/04/01 00:45:46;;;;;;;1.33;1.23;;;23.10;27.60;;;;;;4991432;28;20207;-50
2021/04/01 00:48:12;;;;;;;1.53;1.43;;;23.10;27.70;;;;;;4993860;28;20240;-54
2021/04/01 00:50:38;;;;;;;1.57;1.40;;;23.10;27.60;;;;;;4993075;28;20216;-43
2021/04/01 00:53:04;;;;;;;1.53;1.43;;;23.10;27.80;;;;;;4993032;28;20636;-45
2021/04/01 00:55:30;;;;;;;1.50;1.40;;;23.10;27.70;;;;;;4993150;28;20552;-50
2021/04/01 00:57:56;;;;;;;1.58;1.48;;;23.10;27.60;;;;;;4993042;28;20208;-43
2021/04/01 01:00:23;;;;;;;1.60;1.30;;;23.10;27.60;;;;;;4992967;28;20226;-46
2021/04/01 01:02:49;;;;;;;1.57;1.47;;;23.10;27.70;;;;;;4993182;28;20226;-47
2021/04/01 01:05:15;;;;;;;2.20;1.50;;;23.10;27.70;;;;;;4992606;28;21128;-48
2021/04/01 01:07:41;;;;;;;1.40;1.30;;;23.10;27.70;;;;;;4993132;28;20207;-46
2021/04/01 01:10:07;;;;;;;1.47;1.30;;;23.10;27.70;;;;;;4992096;28;20234;-48
2021/04/01 01:12:33;;;;;;;1.57;1.47;;;23.10;27.70;;;;;;4992762;28;20207;-45
2021/04/01 01:14:59;;;;;;;1.73;1.40;;;23.10;27.70;;;;;;4992520;28;20200;-49
2021/04/01 01:17:25;;;;;;;2.50;1.50;;;23.10;27.70;;;;;;4992526;28;20203;-50
2021/04/01 01:19:51;;;;;;;1.60;1.50;;;23.10;27.80;;;;;;4992675;28;20243;-43
2021/04/01 01:22:17;;;;;;;1.87;1.67;;;23.10;27.70;;;;;;4993809;28;20243;-43
2021/04/01 01:24:43;;;;;;;2.40;1.60;;;23.10;27.70;;;;;;4992543;28;20258;-43
2021/04/01 01:27:09;;;;;;;1.70;1.60;;;23.10;27.70;;;;;;4992793;28;20600;-45
2021/04/01 01:29:35;;;;;;;1.53;1.43;;;23.10;27.70;;;;;;4992035;28;20267;-44
2021/04/01 01:32:00;;;;;;;1.60;1.40;;;23.10;27.70;;;;;;4992617;28;20206;-42
2021/04/01 01:34:26;;;;;;;1.50;1.40;;;23.00;27.60;;;;;;4991241;28;20207;-43
2021/04/01 01:36:52;;;;;;;1.27;1.17;;;23.10;27.70;;;;;;4989988;28;20215;-42
2021/04/01 01:39:18;;;;;;;1.77;1.50;;;23.10;27.70;;;;;;4993482;28;20809;-42
2021/04/01 01:41:44;;;;;;;1.43;1.30;;;23.10;27.70;;;;;;4992521;28;20238;-46
2021/04/01 01:44:10;;;;;;;1.10;1.10;;;23.10;27.70;;;;;;4991813;28;20293;-42
2021/04/01 01:46:36;;;;;;;1.10;1.10;;;23.10;27.70;;;;;;4991629;28;20214;-43
2021/04/01 01:49:02;;;;;;;1.60;1.50;;;23.10;27.80;;;;;;4993624;28;20770;-41
2021/04/01 01:51:28;;;;;;;2.07;1.50;;;23.00;27.70;;;;;;4992614;28;20226;-42
2021/04/01 01:53:54;;;;;;;2.27;1.40;;;23.00;27.60;;;;;;4985161;28;20222;-42
2021/04/01 01:56:20;;;;;;;1.60;1.50;;;23.00;27.70;;;;;;4991221;28;20211;-50
2021/04/01 01:58:46;;;;;;;1.30;1.20;;;23.00;27.70;;;;;;4993050;28;20239;-58
2021/04/01 02:01:12;;;;;;;1.57;1.47;;;23.10;27.80;;;;;;4991622;28;20204;-52
2021/04/01 02:03:38;;;;;;;1.47;1.37;;;23.00;27.70;;;;;;4991741;28;20300;-50
2021/04/01 02:06:05;;;;;;;1.50;1.30;;;23.00;27.70;;;;;;4992337;28;20199;-48
2021/04/01 02:08:31;;;;;;;1.70;1.50;;;23.00;27.70;;;;;;4990924;28;20211;-47
2021/04/01 02:10:57;;;;;;;1.50;1.40;;;23.00;27.70;;;;;;4979258;28;20555;-46
2021/04/01 02:13:23;;;;;;;1.50;1.30;;;23.00;27.70;;;;;;4991467;28;20207;-42
2021/04/01 02:15:49;;;;;;;1.80;1.50;;;23.00;27.70;;;;;;4992053;28;20211;-50
2021/04/01 02:18:15;;;;;;;1.30;1.20;;;23.00;27.90;;;;;;4990749;28;20230;-47
2021/04/01 02:20:42;;;;;;;1.50;1.40;;;23.00;27.80;;;;;;4992593;28;20218;-42
2021/04/01 02:23:08;;;;;;;1.40;1.30;;;23.00;27.70;;;;;;4990940;28;20653;-50
2021/04/01 02:25:34;;;;;;;1.73;1.63;;;23.10;27.90;;;;;;4991973;28;20200;-47
2021/04/01 02:28:00;;;;;;;1.80;1.70;;;23.00;27.70;;;;;;4990860;28;20868;-49
2021/04/01 02:30:26;;;;;;;1.87;1.50;;;23.00;27.70;;;;;;4990682;28;20230;-45
2021/04/01 02:32:51;;;;;;;1.97;1.50;;;23.00;27.80;;;;;;4990235;28;20266;-46
2021/04/01 02:35:17;;;;;;;3.00;1.50;;;23.00;27.80;;;;;;4992487;28;20210;-49
2021/04/01 02:37:43;;;;;;;1.40;1.30;;;23.00;27.70;;;;;;4989586;28;20732;-49
2021/04/01 02:40:09;;;;;;;2.20;1.43;;;23.00;27.80;;;;;;4992409;28;20266;-51
2021/04/01 02:42:35;;;;;;;1.48;1.38;;;23.00;27.90;;;;;;4991779;28;20682;-46
2021/04/01 02:45:01;;;;;;;1.53;1.43;;;23.00;27.70;;;;;;4991259;28;20634;-50
2021/04/01 02:47:27;;;;;;;2.50;1.63;;;23.00;27.80;;;;;;4989084;28;20254;-50
2021/04/01 02:49:53;;;;;;;1.40;1.30;;;23.00;27.90;;;;;;4991946;28;20273;-45
2021/04/01 02:52:19;;;;;;;1.90;1.40;;;23.00;27.90;;;;;;4990793;28;20218;-52
2021/04/01 02:54:45;;;;;;;1.50;1.40;;;23.00;27.80;;;;;;4990692;28;20306;-48
2021/04/01 02:57:11;;;;;;;1.57;1.47;;;23.00;27.90;;;;;;4990787;28;20546;-51
2021/04/01 02:59:37;;;;;;;1.40;1.30;;;23.00;27.80;;;;;;4991009;28;20224;-49
2021/04/01 03:02:03;;;;;;;2.23;1.50;;;23.00;27.80;;;;;;4991492;28;20210;-45
2021/04/01 03:04:31;;;;;;;1.50;1.40;;;23.00;27.90;;;;;;4984538;28;20721;-47
2021/04/01 03:06:57;;;;;;;1.50;1.40;;;23.00;28.00;;;;;;4991423;28;20214;-50
2021/04/01 03:09:23;;;;;;;1.40;1.30;;;23.00;27.80;;;;;;4990917;28;20223;-47
2021/04/01 03:11:49;;;;;;;1.37;1.27;;;23.00;28.00;;;;;;4991793;28;20203;-42
2021/04/01 03:14:15;;;;;;;1.23;1.13;;;23.00;28.00;;;;;;4989638;28;20636;-40
2021/04/01 03:16:41;;;;;;;3.27;1.50;;;23.00;27.90;;;;;;4991223;28;20195;-45
2021/04/01 03:19:07;;;;;;;1.40;1.30;;;23.00;28.00;;;;;;4990850;28;20227;-46
2021/04/01 03:21:32;;;;;;;1.30;1.20;;;23.00;28.00;;;;;;4992075;28;20216;-49
2021/04/01 03:23:58;;;;;;;1.97;1.40;;;23.00;28.00;;;;;;4990534;28;20231;-49
2021/04/01 03:26:25;;;;;;;1.50;1.40;;;23.00;27.90;;;;;;4991178;28;20660;-44
2021/04/01 03:28:51;;;;;;;1.90;1.30;;;23.00;28.00;;;;;;4990475;28;20255;-41
2021/04/01 03:31:17;;;;;;;1.40;1.30;;;23.00;28.00;;;;;;4991062;28;20274;-45
2021/04/01 03:33:43;;;;;;;2.10;1.47;;;23.00;28.00;;;;;;4990500;28;20204;-44
2021/04/01 03:36:09;;;;;;;1.43;1.33;;;23.00;28.00;;;;;;4990793;28;20652;-45
2021/04/01 03:38:35;;;;;;;1.73;1.47;;;23.10;28.10;;;;;;4988722;28;20615;-43
2021/04/01 03:41:01;;;;;;;1.80;1.50;;;23.10;28.10;;;;;;4992931;28;20203;-44
2021/04/01 03:43:27;;;;;;;1.77;1.37;;;23.00;28.00;;;;;;4994133;28;20229;-46
2021/04/01 03:45:54;;;;;;;2.53;1.43;;;23.00;28.00;;;;;;4995152;28;20207;-44
2021/04/01 03:48:20;;;;;;;2.70;1.60;;;23.00;28.00;;;;;;4994207;28;20284;-43
2021/04/01 03:50:46;;;;;;;1.97;1.50;;;23.00;28.00;;;;;;4995271;28;20202;-45
2021/04/01 03:53:12;;;;;;;2.10;1.43;;;23.00;28.00;;;;;;4994551;28;20204;-47
2021/04/01 03:55:40;;;;;;;1.47;1.37;;;23.00;28.00;;;;;;4993856;28;20211;-43
2021/04/01 03:58:19;;;;;;;1.50;1.27;;;23.00;28.00;;;;;;4992917;28;20222;-51
2021/04/01 04:00:50;;;;;;;1.70;1.45;;;23.00;28.10;;;;;;4995411;28;20275;-45
2021/04/01 04:03:31;;;;;;;1.70;1.60;;;23.00;28.00;;;;;;4993711;28;20232;-42
2021/04/01 04:06:03;;;;;;;1.60;1.50;;;23.00;28.10;;;;;;4995024;28;20346;-49
2021/04/01 04:11:26;;;;;;;2.40;1.57;;;23.00;28.00;;;;;;4988980;28;20211;-46
2021/04/01 04:13:54;;;;;;;1.40;1.30;;;22.90;28.00;;;;;;4994459;28;20211;-46
2021/04/01 04:16:20;;;;;;;1.27;1.17;;;23.00;28.00;;;;;;4994483;28;20291;-46
2021/04/01 04:18:46;;;;;;;2.47;1.50;;;23.00;28.00;;;;;;4994080;28;20229;-46
2021/04/01 04:21:13;;;;;;;4.83;1.63;;;23.00;28.00;;;;;;4994982;28;20218;-44
2021/04/01 04:23:42;;;;;;;1.30;1.20;;;23.00;28.10;;;;;;4993199;28;20575;-46
2021/04/01 04:26:08;;;;;;;1.37;1.20;;;23.00;28.00;;;;;;4994628;28;20207;-44
2021/04/01 04:28:35;;;;;;;1.77;1.30;;;23.00;28.00;;;;;;4993771;28;20226;-42
2021/04/01 04:31:01;;;;;;;1.67;1.50;;;23.00;28.00;;;;;;4995049;28;20208;-46
2021/04/01 04:33:27;;;;;;;2.70;1.63;;;23.00;28.10;;;;;;4993836;28;20567;-46
2021/04/01 04:35:53;;;;;;;1.77;1.40;;;23.00;28.00;;;;;;4994455;28;20207;-43
2021/04/01 04:38:19;;;;;;;1.37;1.20;;;23.00;28.00;;;;;;4991951;28;20307;-47
2021/04/01 04:40:45;;;;;;;1.40;1.30;;;23.00;28.00;;;;;;4994678;28;20214;-43
2021/04/01 04:43:11;;;;;;;2.17;1.80;;;23.00;28.00;;;;;;4992414;28;20223;-46
2021/04/01 04:45:37;;;;;;;1.73;1.30;;;23.00;28.00;;;;;;4994475;28;20204;-43
2021/04/01 04:48:03;;;;;;;2.33;1.50;;;23.00;28.00;;;;;;4991735;28;20223;-44
2021/04/01 04:50:29;;;;;;;1.57;1.47;;;23.00;28.10;;;;;;4994776;28;20561;-42
2021/04/01 04:52:55;;;;;;;2.07;1.30;;;23.00;28.00;;;;;;4992540;28;20207;-44
2021/04/01 04:55:21;;;;;;;1.77;1.30;;;23.00;28.00;;;;;;4994318;28;20219;-41
2021/04/01 04:57:50;;;;;;;1.67;1.57;;;23.00;28.00;;;;;;4992540;28;20226;-43
2021/04/01 05:05:56;;;;;;;1.47;1.27;;;22.90;28.00;;;;;;4993696;28;20829;-42
2021/04/01 05:08:22;;;;;;;1.50;1.30;;;23.00;28.00;;;;;;4992198;28;20231;-54
2021/04/01 05:10:49;;;;;;;1.70;1.33;;;22.90;28.00;;;;;;4993690;28;20666;-44
2021/04/01 05:13:14;;;;;;;2.63;1.50;;;23.00;28.00;;;;;;4992684;28;20208;-45
2021/04/01 05:15:41;;;;;;;2.03;1.40;;;23.00;28.00;;;;;;4993771;28;20199;-49
2021/04/01 05:18:16;;;;;;;1.33;1.13;;;22.90;28.00;;;;;;4991961;28;20342;-45
2021/04/01 05:20:42;;;;;;;2.03;1.50;;;23.00;28.00;;;;;;4992887;28;20426;-48
2021/04/01 05:23:16;;;;;;;1.30;1.20;;;23.00;28.10;;;;;;4991806;28;22218;-44
2021/04/01 05:25:42;;;;;;;1.37;1.17;;;22.90;28.00;;;;;;4993544;28;20219;-46
2021/04/01 05:28:19;;;;;;;1.50;1.40;;;22.90;28.00;;;;;;4991752;28;20695;-44
2021/04/01 05:30:45;;;;;;;2.63;1.40;;;23.00;28.00;;;;;;4992973;28;20215;-46
2021/04/01 05:33:11;;;;;;;8.30;1.60;;;23.00;28.00;;;;;;4986994;28;20274;-49
2021/04/01 05:35:37;;;;;;;7.47;2.13;;;23.00;28.00;;;;;;4991593;28;20211;-46
2021/04/01 05:38:04;;;;;;;3.63;1.67;;;23.00;28.50;;;;;;4988913;28;20229;-45
2021/04/01 05:40:30;;;;;;;3.27;1.53;;;23.00;28.50;;;;;;4992513;28;20207;-42
2021/04/01 05:42:56;;;;;;;1.50;1.40;;;23.00;28.50;;;;;;4989943;28;20673;-43
2021/04/01 05:45:26;;;;;;;12.10;2.10;;;23.00;28.50;;;;;;4984791;28;20308;-42
2021/04/01 05:47:54;;;;;;;6.17;2.20;;;22.90;28.00;;;;;;4983656;28;20227;-43
2021/04/01 05:50:35;;;;;;;7.70;2.50;;;22.30;25.90;;;;;;4986130;28;20203;-43
2021/04/01 05:58:45;;;;;;;5.27;2.90;;;21.90;23.90;;;;;;4990628;28;20251;-43
2021/04/01 06:01:21;;;;;;;5.83;2.37;;;22.20;24.10;;;;;;4990101;28;20225;-44
2021/04/01 06:03:48;;;;;;;6.77;2.73;;;22.40;24.30;;;;;;4977952;28;20238;-45
2021/04/01 06:06:14;;;;;;;2.60;2.10;;;22.60;24.70;;;;;;4990662;28;20218;-42
2021/04/01 06:08:43;;;;;;;6.43;2.40;;;22.60;24.70;;;;;;4983184;28;20707;-43
2021/04/01 06:11:09;;;;;;;3.50;2.10;;;22.70;24.80;;;;;;4990217;28;20203;-47
2021/04/01 06:13:35;;;;;;;6.50;2.00;;;22.70;24.90;;;;;;4987072;28;20327;-43
2021/04/01 06:16:01;;;;;;;3.70;1.90;;;22.70;25.00;;;;;;4990188;28;20223;-42
2021/04/01 06:18:27;;;;;;;3.97;2.00;;;22.80;25.30;;;;;;4989127;28;20221;-48
2021/04/01 06:20:53;;;;;;;4.43;2.20;;;22.80;25.50;;;;;;4983076;28;20306;-44
2021/04/01 06:23:19;;;;;;;5.80;1.90;;;22.90;25.90;;;;;;4990170;28;20722;-45
2021/04/01 06:25:45;;;;;;;3.33;1.77;;;22.90;26.00;;;;;;4990041;28;20207;-48
2021/04/01 06:28:12;;;;;;;3.80;1.97;;;22.90;26.00;;;;;;4981204;28;20951;-44
2021/04/01 06:30:42;;;;;;;3.80;1.50;;;22.90;26.00;;;;;;4983491;28;20250;-43
2021/04/01 06:33:11;;;;;;;4.63;1.67;;;23.00;26.10;;;;;;4990171;28;20219;-42
2021/04/01 06:35:39;;;;;;;4.53;1.83;;;23.00;26.20;;;;;;4989973;28;20203;-46
2021/04/01 06:38:19;;;;;;;2.17;1.50;;;23.00;26.30;;;;;;4990201;28;20227;-45
2021/04/01 06:40:45;;;;;;;6.20;2.07;;;23.00;26.30;;;;;;4991003;28;20217;-42
2021/04/01 06:43:11;;;;;;;3.57;1.80;;;23.00;26.40;;;;;;4990906;28;20232;-48
2021/04/01 06:45:37;;;;;;;4.43;1.90;;;23.10;26.90;;;;;;4990965;28;20210;-53
2021/04/01 06:48:03;;;;;;;3.67;1.70;;;23.10;26.80;;;;;;4986901;28;20687;-43
2021/04/01 06:50:33;;;;;;;4.27;1.80;;;23.10;26.80;;;;;;4988810;28;20275;-51
2021/04/01 06:53:02;;;;;;;4.43;1.77;;;23.10;26.80;;;;;;4987741;28;20218;-53
2021/04/01 06:55:31;;;;;;;6.07;2.07;;;23.20;28.20;;;;;;4988491;28;20205;-49
2021/04/01 06:58:06;;;;;;;4.83;1.60;;;23.20;27.60;;;;;;4990434;28;20265;-49
2021/04/01 07:00:56;;;;;;;8.77;1.93;;;23.20;27.80;;;;;;4989954;28;20587;-48
2021/04/01 07:03:22;;;;;;;6.43;1.73;;;23.20;27.60;;;;;;4981217;28;20309;-52
2021/04/01 07:05:51;;;;;;;2.90;1.60;;;23.20;26.90;;;;;;4980164;28;20207;-50
2021/04/01 07:08:20;;;;;;;2.93;1.70;;;23.10;26.70;;;;;;4989305;28;20228;-43
2021/04/01 07:10:52;;;;;;;3.77;1.53;;;23.10;26.70;;;;;;4987969;28;20569;-43
2021/04/01 07:13:20;;;;;;;11.47;1.97;;;23.20;27.70;;;;;;4989651;28;20238;-53
2021/04/01 07:15:48;;;;;;;4.23;1.83;;;23.20;28.10;;;;;;4988294;28;20214;-49
2021/04/01 07:18:26;;;;;;;1.57;1.47;;;23.20;27.70;;;;;;4990417;28;20234;-47
2021/04/01 07:21:29;;;;;;;3.20;1.40;;;23.10;27.50;;;;;;4988383;28;20216;-49
2021/04/01 07:24:22;;;;;;;3.73;1.47;;;23.10;27.50;;;;;;4988626;28;20277;-43
2021/04/01 07:32:27;;;;;;;3.17;1.50;;;23.10;27.20;;;;;;4954866;28;20205;-44
2021/04/01 07:35:20;;;;;;;3.17;1.40;;;23.10;27.40;;;;;;4989543;28;20207;-44
2021/04/01 07:48:42;;;;;;;4.27;2.17;;;23.20;26.60;;;;;;4983210;28;20215;-43
2021/04/01 07:51:09;;;;;;;2.77;1.77;;;23.10;26.10;;;;;;4987712;28;20215;-45
2021/04/01 07:53:35;;;;;;;6.03;1.97;;;23.10;26.10;;;;;;4989952;28;20242;-42
2021/04/01 07:56:08;;;;;;;2.60;1.87;;;23.00;25.50;;;;;;4986970;28;20256;-44
2021/04/01 08:01:41;;;;;;;3.50;2.10;;;23.00;24.70;;;;;;4948659;29;20603;-46
2021/04/01 08:04:07;;;;;;;7.87;2.47;;;23.00;24.70;;;;;;4974293;28;20675;-46
2021/04/01 08:06:35;;;;;;;3.57;2.27;;;23.00;24.60;;;;;;4987892;28;20222;-45
2021/04/01 08:09:03;;;;;;;9.50;3.17;;;23.10;24.40;;;;;;4988278;28;20204;-47
2021/04/01 08:11:31;;;;;;;8.03;2.70;;;23.10;24.70;;;;;;4985958;28;20310;-44
2021/04/01 08:13:58;;;;;;;5.73;2.80;;;23.10;25.40;;;;;;4989133;28;20207;-45
2021/04/01 08:16:24;;;;;;;5.60;2.30;;;23.10;25.30;;;;;;4984285;28;20281;-44
2021/04/01 08:18:52;;;;;;;5.47;2.27;;;23.10;25.60;;;;;;4982343;28;20221;-46
2021/04/01 08:21:18;;;;;;;9.03;2.77;;;23.10;25.50;;;;;;4981338;28;20297;-41
2021/04/01 08:23:46;;;;;;;10.67;3.00;;;23.20;25.70;;;;;;4986672;28;20231;-44
2021/04/01 08:26:18;;;;;;;5.33;3.00;;;23.20;25.40;;;;;;4985427;28;20215;-48
2021/04/01 08:29:00;;;;;;;9.33;3.40;;;23.20;25.10;;;;;;4989386;28;20596;-47
2021/04/01 08:34:16;;;;;;;6.27;2.77;;;23.10;25.00;;;;;;4982669;28;20215;-46
2021/04/01 08:36:42;;;;;;;5.87;3.30;;;23.10;24.70;;;;;;4989655;28;20262;-47
2021/04/01 08:39:08;;;;;;;8.00;2.93;;;23.10;24.20;;;;;;4992441;28;20244;-47
2021/04/01 08:41:34;;;;;;;5.83;2.97;;;23.10;24.50;;;;;;4985532;28;20199;-46
2021/04/01 08:44:00;;;;;;;5.47;3.37;;;23.10;24.20;;;;;;4988294;28;20238;-42
2021/04/01 08:46:26;;;;;;;8.60;3.70;;;23.10;24.80;;;;;;4989140;28;20291;-41
2021/04/01 08:48:52;;;;;;;8.13;3.50;;;23.20;24.30;;;;;;4989617;28;20208;-44
2021/04/01 08:51:18;;;;;;;6.77;3.37;;;23.20;24.80;;;;;;4991821;28;20211;-43
2021/04/01 08:53:44;;;;;;;5.50;3.28;;;23.20;24.50;;;;;;4991409;28;20243;-49
2021/04/01 08:56:18;;;;;;;5.83;3.70;;;23.10;25.20;;;;;;4984916;28;20223;-43
2021/04/01 08:58:44;;;;;;;4.80;2.80;;;23.10;24.60;;;;;;4989265;28;20606;-42
2021/04/01 09:01:14;;;;;;;5.63;3.23;;;23.10;24.60;;;;;;4988895;28;20211;-43
2021/04/01 09:03:40;;;;;;;6.60;3.42;;;23.10;24.20;;;;;;4984209;28;20295;-46
2021/04/01 09:06:06;;;;;;;7.07;3.10;;;23.20;24.90;;;;;;4989218;28;20219;-41
2021/04/01 09:08:32;;;;;;;8.03;3.43;;;23.20;24.60;;;;;;4991637;28;20227;-42
2021/04/01 09:10:59;;;;;;;4.97;3.42;;;23.20;24.70;;;;;;4990286;28;20234;-45
2021/04/01 09:13:28;;;;;;;6.53;3.93;;;23.20;24.80;;;;;;4990241;28;20226;-42
2021/04/01 09:15:58;;;;;;;6.40;3.23;;;23.20;24.30;;;;;;4990509;28;20215;-43
2021/04/01 09:18:24;;;;;;;6.47;3.27;;;23.20;24.50;;;;;;4992315;28;20226;-48
2021/04/01 09:20:50;;;;;;;9.27;4.10;;;23.20;24.30;;;;;;4998325;23;20519;-43
2021/04/01 09:23:16;;;;;;;5.87;3.70;;;23.20;24.30;;;;;;4971979;28;20294;-42
2021/04/01 09:25:42;;;;;;;7.73;4.30;;;23.20;24.30;;;;;;4972461;28;20215;-40
2021/04/01 09:28:08;;;;;;;7.57;4.10;;;23.30;24.40;;;;;;4969266;28;20208;-41
2021/04/01 09:30:34;;;;;;;8.68;4.15;;;23.30;24.40;;;;;;4972570;28;20601;-45
2021/04/01 09:33:01;;;;;;;7.80;4.00;;;23.20;24.30;;;;;;4967722;28;20262;-45
2021/04/01 09:35:27;;;;;;;6.30;3.93;;;23.20;24.10;;;;;;4973407;28;20728;-47
2021/04/01 09:37:53;;;;;;;6.40;4.20;;;23.20;24.20;;;;;;4971153;28;20213;-46
2021/04/01 09:40:19;;;;;;;5.17;3.50;;;23.20;24.30;;;;;;4970977;28;20571;-48
2021/04/01 09:42:46;;;;;;;5.53;3.20;;;23.20;24.30;;;;;;4972268;28;20279;-50
2021/04/01 09:45:12;;;;;;;5.47;3.20;;;23.30;24.30;;;;;;4970973;28;20244;-52
2021/04/01 09:47:38;;;;;;;5.17;3.20;;;23.30;24.40;;;;;;4970279;28;20732;-49
2021/04/01 09:50:04;;;;;;;4.28;2.95;;;23.30;24.50;;;;;;4970928;28;20275;-47
2021/04/01 09:52:30;;;;;;;3.77;2.90;;;23.30;24.70;;;;;;4974160;28;20227;-51
2021/04/01 09:54:56;;;;;;;5.13;3.20;;;23.30;24.60;;;;;;4969497;28;20560;-56
2021/04/01 09:57:22;;;;;;;5.30;2.90;;;23.30;24.30;;;;;;4966441;28;20238;-49
2021/04/01 09:59:49;;;;;;;4.80;3.55;;;23.30;24.80;;;;;;4956012;28;20672;-45
2021/04/01 10:02:15;;;;;;;4.67;3.33;;;23.30;24.30;;;;;;4969003;28;20211;-49
2021/04/01 10:04:42;;;;;;;5.57;3.50;;;23.30;24.30;;;;;;4969110;28;20237;-52
2021/04/01 10:07:08;;;;;;;4.70;3.43;;;23.30;24.30;;;;;;4971705;28;20235;-45
2021/04/01 10:09:34;;;;;;;6.50;2.87;;;23.30;24.30;;;;;;4969270;28;20207;-47
2021/04/01 10:12:00;;;;;;;4.32;2.92;;;23.30;24.70;;;;;;4967051;28;20200;-42
2021/04/01 10:14:27;;;;;;;7.27;3.07;;;23.30;25.00;;;;;;4970687;28;20688;-41
2021/04/01 10:16:54;;;;;;;5.83;2.70;;;23.30;25.20;;;;;;4967150;28;20327;-47
2021/04/01 10:19:20;;;;;;;3.43;2.40;;;23.30;26.00;;;;;;4971764;28;20212;-41
2021/04/01 10:21:46;;;;;;;6.10;2.50;;;23.30;25.70;;;;;;4972317;28;20687;-42
2021/04/01 10:24:12;;;;;;;4.10;2.67;;;23.30;25.40;;;;;;4972078;28;20236;-43
2021/04/01 10:26:41;;;;;;;5.30;2.67;;;23.30;25.10;;;;;;4970974;28;20282;-42
2021/04/01 10:29:10;;;;;;;5.80;2.80;;;23.30;25.00;;;;;;4972027;28;20299;-44
2021/04/01 10:31:36;;;;;;;4.37;2.50;;;23.30;25.10;;;;;;4970188;28;20222;-50
2021/04/01 10:34:02;;;;;;;3.03;2.10;;;23.30;25.30;;;;;;4972273;28;20573;-49
2021/04/01 10:36:29;;;;;;;4.47;2.50;;;23.40;25.70;;;;;;4966360;28;20224;-45
2021/04/01 10:39:00;;;;;;;3.73;2.70;;;23.50;25.50;;;;;;4968938;28;20220;-45
2021/04/01 10:41:26;;;;;;;6.50;3.00;;;23.40;25.30;;;;;;4967317;28;20237;-43
2021/04/01 10:43:52;;;;;;;5.93;2.60;;;23.40;25.30;;;;;;4972469;28;20224;-47
2021/04/01 10:46:18;;;;;;;6.20;2.73;;;23.40;25.40;;;;;;4970228;28;20224;-42
2021/04/01 10:48:44;;;;;;;7.30;3.23;;;23.40;25.60;;;;;;4969823;28;20552;-49
2021/04/01 10:51:10;;;;;;;6.93;2.47;;;23.40;25.60;;;;;;4969214;28;20256;-43
2021/04/01 10:53:36;;;;;;;5.27;2.97;;;23.40;25.70;;;;;;4962188;28;20209;-43
2021/04/01 10:56:02;;;;;;;3.30;2.67;;;23.40;25.30;;;;;;4966383;28;20232;-47
2021/04/01 10:58:28;;;;;;;5.80;2.67;;;23.40;25.60;;;;;;4971561;28;20209;-44
2021/04/01 11:00:54;;;;;;;4.57;2.60;;;23.40;25.60;;;;;;4969720;28;20637;-46
2021/04/01 11:03:20;;;;;;;6.15;2.35;;;23.30;25.90;;;;;;4971426;28;20239;-46
2021/04/01 11:05:46;;;;;;;4.10;2.60;;;23.30;25.90;;;;;;4967113;28;20280;-45
2021/04/01 11:08:12;;;;;;;5.97;2.85;;;23.30;26.00;;;;;;4962847;28;20204;-43
2021/04/01 11:10:38;;;;;;;4.23;2.63;;;23.30;26.20;;;;;;4970339;28;20204;-47
2021/04/01 11:13:04;;;;;;;4.90;3.00;;;23.30;26.20;;;;;;4969705;28;20212;-47
2021/04/01 11:15:30;;;;;;;4.53;2.50;;;23.30;26.20;;;;;;4970398;28;20228;-44
2021/04/01 11:17:56;;;;;;;4.30;2.33;;;23.30;26.20;;;;;;4968730;28;20693;-48
2021/04/01 11:20:22;;;;;;;7.25;2.88;;;23.30;26.20;;;;;;4968322;28;20298;-46
2021/04/01 11:22:48;;;;;;;4.30;2.80;;;23.40;26.30;;;;;;4971651;28;20657;-45
2021/04/01 11:25:14;;;;;;;4.63;2.70;;;23.40;26.20;;;;;;4970037;28;20258;-46
2021/04/01 11:27:39;;;;;;;4.50;2.63;;;23.40;26.20;;;;;;4970834;28;20211;-44
2021/04/01 11:30:05;;;;;;;5.20;2.53;;;23.30;26.10;;;;;;4970446;28;20215;-47
2021/04/01 11:32:31;;;;;;;3.63;2.23;;;23.40;26.20;;;;;;4968344;28;20219;-45
2021/04/01 11:34:57;;;;;;;4.87;2.50;;;23.40;26.20;;;;;;4969208;28;20638;-42
2021/04/01 11:37:24;;;;;;;3.53;1.92;;;23.40;26.10;;;;;;4970417;28;20204;-44
2021/04/01 11:39:50;;;;;;;2.95;2.30;;;23.40;26.10;;;;;;4971640;28;20193;-42
2021/04/01 11:42:16;;;;;;;2.60;2.03;;;23.40;26.10;;;;;;4968002;28;20913;-47
2021/04/01 11:44:42;;;;;;;3.58;2.90;;;23.40;26.10;;;;;;4961062;28;20274;-47
2021/04/01 11:47:08;;;;;;;8.07;4.60;;;23.40;26.20;;;;;;4970741;28;20200;-49
2021/04/01 11:49:34;;;;;;;6.57;3.80;;;23.40;26.30;;;;;;4970734;28;20299;-46
2021/04/01 11:52:00;;;;;;;7.35;3.40;;;23.40;26.30;;;;;;4970119;28;20609;-48
2021/04/01 11:54:26;;;;;;;7.73;4.17;;;23.40;26.30;;;;;;4974253;28;20560;-44
2021/04/01 11:56:52;;;;;;;6.53;4.60;;;23.40;26.40;;;;;;4982912;28;20199;-54
2021/04/01 11:59:20;;;;;;;6.67;3.70;;;23.40;26.50;;;;;;4970245;28;20212;-46
2021/04/01 12:01:46;;;;;;;6.57;3.83;;;23.50;26.70;;;;;;4969379;28;20193;-51
2021/04/01 12:04:12;;;;;;;6.60;3.70;;;23.50;26.90;;;;;;4973343;28;20220;-48
2021/04/01 12:06:38;;;;;;;7.63;4.13;;;23.40;27.00;;;;;;4974858;28;20211;-52
2021/04/01 12:09:04;;;;;;;6.22;3.45;;;23.40;27.10;;;;;;4974580;28;20207;-47
2021/04/01 12:11:30;;;;;;;4.93;3.00;;;23.40;27.30;;;;;;4972078;28;20607;-54
2021/04/01 12:13:56;;;;;;;6.40;3.13;;;23.40;28.10;;;;;;4974633;28;20207;-53
2021/04/01 12:16:23;;;;;;;4.63;2.78;;;23.40;28.30;;;;;;4971594;28;20227;-46
2021/04/01 12:18:49;;;;;;;8.13;3.75;;;23.40;28.30;;;;;;4971852;28;20207;-45
2021/04/01 12:21:15;;;;;;;7.80;3.30;;;23.40;28.70;;;;;;4974219;28;20215;-49
2021/04/01 12:23:41;;;;;;;5.75;3.63;;;23.40;28.80;;;;;;4974835;28;20719;-48
2021/04/01 12:26:07;;;;;;;5.78;3.10;;;23.40;28.30;;;;;;4974676;28;20217;-52
2021/04/01 12:28:33;;;;;;;7.53;3.23;;;23.40;27.80;;;;;;4974012;28;20209;-47
2021/04/01 12:30:59;;;;;;;4.53;3.08;;;23.40;27.60;;;;;;4974482;28;20228;-43
2021/04/01 12:33:25;;;;;;;7.53;3.90;;;23.40;27.90;;;;;;4973620;28;20645;-42
2021/04/01 12:35:51;;;;;;;5.43;3.20;;;23.40;28.20;;;;;;4965501;28;20245;-48
2021/04/01 12:38:17;;;;;;;5.17;2.90;;;23.40;27.90;;;;;;4973717;28;20203;-49
2021/04/01 12:40:43;;;;;;;6.05;3.15;;;23.40;27.60;;;;;;4974492;28;20204;-44
2021/04/01 12:43:09;;;;;;;5.18;3.40;;;23.40;27.40;;;;;;4973853;28;20301;-45
2021/04/01 12:45:36;;;;;;;6.33;3.33;;;23.40;27.70;;;;;;4975196;28;20227;-44
2021/04/01 12:48:02;;;;;;;5.40;3.50;;;23.40;27.50;;;;;;4972602;28;20653;-46
2021/04/01 12:50:28;;;;;;;4.43;3.33;;;23.30;27.50;;;;;;4972833;28;20270;-54
2021/04/01 12:52:54;;;;;;;7.73;3.20;;;23.40;28.00;;;;;;4980575;28;20224;-48
2021/04/01 12:55:20;;;;;;;4.73;3.33;;;23.30;27.50;;;;;;4973352;28;20268;-53
2021/04/01 12:57:46;;;;;;;7.00;3.13;;;23.30;27.60;;;;;;4971946;28;20219;-49
2021/04/01 13:00:12;;;;;;;8.17;3.30;;;23.30;28.10;;;;;;4972572;28;20205;-54
2021/04/01 13:02:38;;;;;;;5.13;2.80;;;23.30;27.60;;;;;;4972126;28;20211;-45
2021/04/01 13:05:06;;;;;;;5.20;2.80;;;23.30;27.50;;;;;;4972085;28;20693;-49
2021/04/01 13:07:44;;;;;;;5.53;3.13;;;23.30;27.30;;;;;;4973958;28;20528;-49
2021/04/01 13:10:31;;;;;;;4.68;2.80;;;23.40;27.60;;;;;;4972705;28;20622;-51
2021/04/01 13:12:57;;;;;;;5.13;2.75;;;23.30;27.50;;;;;;4973156;28;20210;-56
2021/04/01 13:15:24;;;;;;;5.93;3.75;;;23.40;27.40;;;;;;4970482;28;20229;-50
2021/04/01 13:17:50;;;;;;;5.10;3.13;;;23.30;27.60;;;;;;4930126;28;22683;-44
2021/04/01 13:20:16;;;;;;;14.57;3.67;;;23.40;27.60;;;;;;4943624;28;20323;-44
2021/04/01 13:22:55;;;;;;;3.05;2.35;;;23.40;27.60;;;;;;4973060;28;20703;-52